sensor_id;sensor_type;location;lat;lon;timestamp;pressure;altitude;pressure_sealevel;temperature;humidity
41947;BME280;27638;42.184;24.848;2023-05-23T00:02:04;99563.50;;;17.05;100.00
41947;BME280;27638;42.184;24.848;2023-05-23T00:04:33;99567.41;;;17.02;100.00
41947;BME280;27638;42.184;24.848;2023-05-23T00:07:03;99562.72;;;16.84;100.00
41947;BME280;27638;42.184;24.848;2023-05-23T00:09:29;99560.03;;;16.78;100.00
41947;BME280;27638;42.184;24.848;2023-05-23T00:11:54;99558.81;;;16.74;100.00
41947;BME280;27638;42.184;24.848;2023-05-23T00:14:20;99558.41;;;16.70;100.00
41947;BME280;27638;42.184;24.848;2023-05-23T00:16:46;99559.38;;;16.56;100.00
41947;BME280;27638;42.184;24.848;2023-05-23T00:19:14;99558.13;;;16.52;100.00
41947;BME280;27638;42.184;24.848;2023-05-23T00:21:44;99561.22;;;16.49;100.00
41947;BME280;27638;42.184;24.848;2023-05-23T00:24:12;99558.34;;;16.57;100.00
41947;BME280;27638;42.184;24.848;2023-05-23T00:26:38;99560.59;;;16.53;100.00
41947;BME280;27638;42.184;24.848;2023-05-23T00:29:04;99554.63;;;16.38;100.00
41947;BME280;27638;42.184;24.848;2023-05-23T00:31:29;99550.28;;;16.31;100.00
41947;BME280;27638;42.184;24.848;2023-05-23T00:33:55;99535.91;;;16.38;100.00
41947;BME280;27638;42.184;24.848;2023-05-23T00:36:21;99535.44;;;16.02;100.00
41947;BME280;27638;42.184;24.848;2023-05-23T00:38:48;99543.38;;;15.75;100.00
41947;BME280;27638;42.184;24.848;2023-05-23T00:41:14;99542.53;;;15.68;100.00
41947;BME280;27638;42.184;24.848;2023-05-23T00:43:40;99542.81;;;15.93;100.00
41947;BME280;27638;42.184;24.848;2023-05-23T00:46:06;99538.81;;;15.62;100.00
41947;BME280;27638;42.184;24.848;2023-05-23T00:48:32;99542.31;;;15.28;100.00
41947;BME280;27638;42.184;24.848;2023-05-23T00:50:57;99540.47;;;15.29;100.00
41947;BME280;27638;42.184;24.848;2023-05-23T00:53:23;99543.94;;;15.29;100.00
41947;BME280;27638;42.184;24.848;2023-05-23T00:55:49;99537.94;;;15.21;100.00
41947;BME280;27638;42.184;24.848;2023-05-23T00:58:15;99539.44;;;15.30;100.00
41947;BME280;27638;42.184;24.848;2023-05-23T01:00:42;99534.81;;;15.11;100.00
41947;BME280;27638;42.184;24.848;2023-05-23T01:03:09;99540.63;;;15.21;100.00
41947;BME280;27638;42.184;24.848;2023-05-23T01:05:41;99537.41;;;14.97;100.00
41947;BME280;27638;42.184;24.848;2023-05-23T01:08:08;99528.50;;;14.84;100.00
41947;BME280;27638;42.184;24.848;2023-05-23T01:10:33;99526.06;;;14.89;100.00
41947;BME280;27638;42.184;24.848;2023-05-23T01:15:32;99522.78;;;15.21;100.00
41947;BME280;27638;42.184;24.848;2023-05-23T01:20:35;99520.53;;;15.25;100.00
41947;BME280;27638;42.184;24.848;2023-05-23T01:25:53;99517.91;;;15.31;100.00
41947;BME280;27638;42.184;24.848;2023-05-23T01:28:36;99533.63;;;15.20;100.00
41947;BME280;27638;42.184;24.848;2023-05-23T01:31:03;99534.38;;;15.07;100.00
41947;BME280;27638;42.184;24.848;2023-05-23T01:33:31;99536.03;;;15.08;100.00
41947;BME280;27638;42.184;24.848;2023-05-23T01:36:00;99526.47;;;15.20;100.00
41947;BME280;27638;42.184;24.848;2023-05-23T01:38:26;99524.84;;;15.26;100.00
41947;BME280;27638;42.184;24.848;2023-05-23T01:40:52;99523.03;;;15.33;100.00
41947;BME280;27638;42.184;24.848;2023-05-23T01:43:17;99521.63;;;15.37;100.00
41947;BME280;27638;42.184;24.848;2023-05-23T01:45:43;99530.19;;;15.26;100.00
41947;BME280;27638;42.184;24.848;2023-05-23T01:48:10;99534.97;;;15.37;100.00
41947;BME280;27638;42.184;24.848;2023-05-23T01:50:37;99525.69;;;15.26;100.00
41947;BME280;27638;42.184;24.848;2023-05-23T01:53:03;99530.88;;;15.41;100.00
41947;BME280;27638;42.184;24.848;2023-05-23T01:55:29;99506.88;;;15.41;100.00
41947;BME280;27638;42.184;24.848;2023-05-23T01:57:56;99517.78;;;15.53;100.00
41947;BME280;27638;42.184;24.848;2023-05-23T02:00:22;99522.50;;;15.51;100.00
41947;BME280;27638;42.184;24.848;2023-05-23T02:02:47;99519.25;;;15.14;100.00
41947;BME280;27638;42.184;24.848;2023-05-23T02:05:13;99518.59;;;15.06;100.00
41947;BME280;27638;42.184;24.848;2023-05-23T02:07:38;99510.03;;;14.82;100.00
41947;BME280;27638;42.184;24.848;2023-05-23T02:10:06;99513.84;;;15.01;100.00
41947;BME280;27638;42.184;24.848;2023-05-23T02:12:32;99504.59;;;14.97;100.00
41947;BME280;27638;42.184;24.848;2023-05-23T02:14:58;99506.53;;;15.16;100.00
41947;BME280;27638;42.184;24.848;2023-05-23T02:17:23;99508.78;;;15.13;100.00
41947;BME280;27638;42.184;24.848;2023-05-23T02:19:49;99512.63;;;15.04;100.00
41947;BME280;27638;42.184;24.848;2023-05-23T02:22:14;99512.09;;;15.21;100.00
41947;BME280;27638;42.184;24.848;2023-05-23T02:24:40;99517.38;;;15.08;100.00
41947;BME280;27638;42.184;24.848;2023-05-23T02:27:05;99523.06;;;14.98;100.00
41947;BME280;27638;42.184;24.848;2023-05-23T02:29:31;99515.06;;;14.98;100.00
41947;BME280;27638;42.184;24.848;2023-05-23T02:31:56;99509.25;;;15.23;100.00
41947;BME280;27638;42.184;24.848;2023-05-23T02:34:22;99513.69;;;15.09;100.00
41947;BME280;27638;42.184;24.848;2023-05-23T02:36:47;99524.91;;;14.98;100.00
41947;BME280;27638;42.184;24.848;2023-05-23T02:39:13;99525.53;;;15.00;100.00
41947;BME280;27638;42.184;24.848;2023-05-23T02:41:39;99522.50;;;15.10;100.00
41947;BME280;27638;42.184;24.848;2023-05-23T02:44:04;99527.44;;;15.13;100.00
41947;BME280;27638;42.184;24.848;2023-05-23T02:46:30;99524.16;;;15.11;100.00
41947;BME280;27638;42.184;24.848;2023-05-23T02:48:55;99516.84;;;14.91;100.00
41947;BME280;27638;42.184;24.848;2023-05-23T02:51:21;99515.50;;;15.02;100.00
41947;BME280;27638;42.184;24.848;2023-05-23T02:53:46;99519.66;;;15.11;100.00
41947;BME280;27638;42.184;24.848;2023-05-23T02:56:11;99516.50;;;15.01;100.00
41947;BME280;27638;42.184;24.848;2023-05-23T02:58:37;99519.66;;;15.11;100.00
41947;BME280;27638;42.184;24.848;2023-05-23T03:01:04;99517.97;;;14.76;100.00
41947;BME280;27638;42.184;24.848;2023-05-23T03:03:29;99516.97;;;14.77;100.00
41947;BME280;27638;42.184;24.848;2023-05-23T03:05:58;99516.47;;;14.94;100.00
41947;BME280;27638;42.184;24.848;2023-05-23T03:08:23;99515.22;;;14.90;100.00
41947;BME280;27638;42.184;24.848;2023-05-23T03:10:49;99526.81;;;15.11;100.00
41947;BME280;27638;42.184;24.848;2023-05-23T03:13:15;99527.91;;;14.88;100.00
41947;BME280;27638;42.184;24.848;2023-05-23T03:15:41;99526.59;;;14.78;100.00
41947;BME280;27638;42.184;24.848;2023-05-23T03:18:06;99516.88;;;14.63;100.00
41947;BME280;27638;42.184;24.848;2023-05-23T03:20:32;99526.19;;;14.53;100.00
41947;BME280;27638;42.184;24.848;2023-05-23T03:22:57;99521.63;;;14.47;100.00
41947;BME280;27638;42.184;24.848;2023-05-23T03:25:23;99517.94;;;14.48;100.00
41947;BME280;27638;42.184;24.848;2023-05-23T03:27:48;99513.78;;;14.60;100.00
41947;BME280;27638;42.184;24.848;2023-05-23T03:30:14;99513.44;;;14.69;100.00
41947;BME280;27638;42.184;24.848;2023-05-23T03:32:39;99525.34;;;14.74;100.00
41947;BME280;27638;42.184;24.848;2023-05-23T03:35:05;99513.81;;;14.66;100.00
41947;BME280;27638;42.184;24.848;2023-05-23T03:37:31;99514.50;;;14.75;100.00
41947;BME280;27638;42.184;24.848;2023-05-23T03:39:56;99520.84;;;14.53;100.00
41947;BME280;27638;42.184;24.848;2023-05-23T03:42:22;99519.16;;;14.66;100.00
41947;BME280;27638;42.184;24.848;2023-05-23T03:44:47;99516.69;;;14.65;100.00
41947;BME280;27638;42.184;24.848;2023-05-23T03:47:12;99523.25;;;14.69;100.00
41947;BME280;27638;42.184;24.848;2023-05-23T03:49:38;99527.81;;;14.75;100.00
41947;BME280;27638;42.184;24.848;2023-05-23T03:52:03;99526.59;;;14.78;100.00
41947;BME280;27638;42.184;24.848;2023-05-23T03:54:29;99525.09;;;14.96;100.00
41947;BME280;27638;42.184;24.848;2023-05-23T03:56:54;99517.47;;;14.93;100.00
41947;BME280;27638;42.184;24.848;2023-05-23T03:59:20;99520.88;;;14.81;100.00
41947;BME280;27638;42.184;24.848;2023-05-23T04:01:45;99521.28;;;15.12;100.00
41947;BME280;27638;42.184;24.848;2023-05-23T04:04:10;99524.41;;;15.22;100.00
41947;BME280;27638;42.184;24.848;2023-05-23T04:06:36;99526.09;;;15.30;100.00
41947;BME280;27638;42.184;24.848;2023-05-23T04:09:02;99532.72;;;15.41;100.00
41947;BME280;27638;42.184;24.848;2023-05-23T04:11:27;99531.63;;;15.28;100.00
41947;BME280;27638;42.184;24.848;2023-05-23T04:13:54;99532.88;;;15.32;100.00
41947;BME280;27638;42.184;24.848;2023-05-23T04:16:19;99525.75;;;15.40;100.00
41947;BME280;27638;42.184;24.848;2023-05-23T04:18:46;99533.97;;;15.45;100.00
41947;BME280;27638;42.184;24.848;2023-05-23T04:21:12;99541.16;;;15.44;100.00
41947;BME280;27638;42.184;24.848;2023-05-23T04:23:37;99526.19;;;15.50;100.00
41947;BME280;27638;42.184;24.848;2023-05-23T04:26:03;99532.31;;;15.78;100.00
41947;BME280;27638;42.184;24.848;2023-05-23T04:28:30;99525.34;;;15.90;100.00
41947;BME280;27638;42.184;24.848;2023-05-23T04:30:56;99546.97;;;16.15;99.87
41947;BME280;27638;42.184;24.848;2023-05-23T04:33:22;99545.78;;;16.24;98.22
41947;BME280;27638;42.184;24.848;2023-05-23T04:35:48;99544.94;;;16.31;97.64
41947;BME280;27638;42.184;24.848;2023-05-23T04:38:13;99546.19;;;16.41;97.04
41947;BME280;27638;42.184;24.848;2023-05-23T04:40:39;99543.31;;;16.49;96.61
41947;BME280;27638;42.184;24.848;2023-05-23T04:43:04;99547.00;;;16.42;96.80
41947;BME280;27638;42.184;24.848;2023-05-23T04:45:29;99551.53;;;16.41;95.68
41947;BME280;27638;42.184;24.848;2023-05-23T04:47:55;99542.78;;;16.67;95.51
41947;BME280;27638;42.184;24.848;2023-05-23T04:50:21;99541.94;;;16.86;94.88
41947;BME280;27638;42.184;24.848;2023-05-23T04:52:47;99554.06;;;16.96;92.43
41947;BME280;27638;42.184;24.848;2023-05-23T04:55:13;99546.44;;;16.99;92.18
41947;BME280;27638;42.184;24.848;2023-05-23T04:57:38;99553.03;;;16.83;93.08
41947;BME280;27638;42.184;24.848;2023-05-23T05:00:04;99555.84;;;17.21;91.85
41947;BME280;27638;42.184;24.848;2023-05-23T05:02:35;99545.31;;;17.40;89.64
41947;BME280;27638;42.184;24.848;2023-05-23T05:05:01;99556.09;;;17.13;89.16
41947;BME280;27638;42.184;24.848;2023-05-23T05:07:28;99554.69;;;16.71;91.56
41947;BME280;27638;42.184;24.848;2023-05-23T05:09:54;99551.41;;;16.76;92.56
41947;BME280;27638;42.184;24.848;2023-05-23T05:12:19;99557.38;;;16.78;92.43
41947;BME280;27638;42.184;24.848;2023-05-23T05:14:45;99562.50;;;16.73;93.49
41947;BME280;27638;42.184;24.848;2023-05-23T05:17:10;99561.47;;;16.94;93.64
41947;BME280;27638;42.184;24.848;2023-05-23T05:19:35;99569.09;;;16.83;93.46
41947;BME280;27638;42.184;24.848;2023-05-23T05:22:01;99562.28;;;17.01;92.95
41947;BME280;27638;42.184;24.848;2023-05-23T05:24:26;99564.31;;;17.05;93.06
41947;BME280;27638;42.184;24.848;2023-05-23T05:26:53;99571.97;;;16.95;93.70
41947;BME280;27638;42.184;24.848;2023-05-23T05:29:18;99559.59;;;17.07;93.85
41947;BME280;27638;42.184;24.848;2023-05-23T05:31:44;99569.47;;;17.13;94.76
41947;BME280;27638;42.184;24.848;2023-05-23T05:34:10;99563.09;;;17.08;93.63
41947;BME280;27638;42.184;24.848;2023-05-23T05:36:35;99574.16;;;17.24;93.86
41947;BME280;27638;42.184;24.848;2023-05-23T05:39:01;99580.50;;;17.43;92.77
41947;BME280;27638;42.184;24.848;2023-05-23T05:41:26;99571.16;;;17.79;92.62
41947;BME280;27638;42.184;24.848;2023-05-23T05:43:52;99576.75;;;17.77;89.40
41947;BME280;27638;42.184;24.848;2023-05-23T05:46:17;99564.09;;;17.91;89.27
41947;BME280;27638;42.184;24.848;2023-05-23T05:48:43;99571.63;;;18.07;89.42
41947;BME280;27638;42.184;24.848;2023-05-23T05:51:08;99574.06;;;18.47;89.71
41947;BME280;27638;42.184;24.848;2023-05-23T05:53:34;99579.34;;;18.92;86.12
41947;BME280;27638;42.184;24.848;2023-05-23T05:55:59;99581.19;;;19.34;82.94
41947;BME280;27638;42.184;24.848;2023-05-23T05:58:25;99579.34;;;19.71;81.24
41947;BME280;27638;42.184;24.848;2023-05-23T06:00:50;99575.81;;;20.07;80.34
41947;BME280;27638;42.184;24.848;2023-05-23T06:03:15;99579.81;;;20.17;77.84
41947;BME280;27638;42.184;24.848;2023-05-23T06:05:41;99580.25;;;19.84;77.97
41947;BME280;27638;42.184;24.848;2023-05-23T06:08:07;99586.59;;;19.89;78.05
41947;BME280;27638;42.184;24.848;2023-05-23T06:10:32;99582.19;;;20.25;77.72
41947;BME280;27638;42.184;24.848;2023-05-23T06:12:58;99580.97;;;20.39;74.72
41947;BME280;27638;42.184;24.848;2023-05-23T06:15:24;99591.53;;;20.52;74.16
41947;BME280;27638;42.184;24.848;2023-05-23T06:17:50;99580.09;;;20.68;72.88
41947;BME280;27638;42.184;24.848;2023-05-23T06:20:16;99586.59;;;21.02;73.48
41947;BME280;27638;42.184;24.848;2023-05-23T06:22:41;99590.94;;;21.39;73.07
41947;BME280;27638;42.184;24.848;2023-05-23T06:25:07;99592.91;;;21.55;70.19
41947;BME280;27638;42.184;24.848;2023-05-23T06:27:32;99592.63;;;21.80;71.04
41947;BME280;27638;42.184;24.848;2023-05-23T06:29:58;99590.50;;;21.93;67.51
41947;BME280;27638;42.184;24.848;2023-05-23T06:32:23;99589.94;;;21.80;67.30
41947;BME280;27638;42.184;24.848;2023-05-23T06:34:49;99575.00;;;22.01;65.43
41947;BME280;27638;42.184;24.848;2023-05-23T06:37:14;99577.03;;;22.22;66.03
41947;BME280;27638;42.184;24.848;2023-05-23T06:39:40;99572.75;;;22.54;64.19
41947;BME280;27638;42.184;24.848;2023-05-23T06:42:06;99564.41;;;22.56;64.21
41947;BME280;27638;42.184;24.848;2023-05-23T06:44:31;99560.28;;;22.82;61.44
41947;BME280;27638;42.184;24.848;2023-05-23T06:46:57;99556.38;;;23.06;62.98
41947;BME280;27638;42.184;24.848;2023-05-23T06:49:24;99563.22;;;23.14;61.00
41947;BME280;27638;42.184;24.848;2023-05-23T06:51:50;99558.16;;;23.39;62.13
41947;BME280;27638;42.184;24.848;2023-05-23T06:54:16;99552.66;;;23.51;59.49
41947;BME280;27638;42.184;24.848;2023-05-23T06:56:41;99545.44;;;23.78;60.04
41947;BME280;27638;42.184;24.848;2023-05-23T06:59:07;99543.84;;;23.39;57.81
41947;BME280;27638;42.184;24.848;2023-05-23T07:01:32;99551.09;;;23.55;59.16
41947;BME280;27638;42.184;24.848;2023-05-23T07:03:58;99546.75;;;23.76;56.87
41947;BME280;27638;42.184;24.848;2023-05-23T07:06:24;99547.66;;;23.60;57.79
41947;BME280;27638;42.184;24.848;2023-05-23T07:08:49;99535.13;;;23.97;57.71
41947;BME280;27638;42.184;24.848;2023-05-23T07:11:15;99535.88;;;24.19;57.95
41947;BME280;27638;42.184;24.848;2023-05-23T07:13:40;99536.16;;;24.45;57.52
41947;BME280;27638;42.184;24.848;2023-05-23T07:16:05;99538.09;;;24.49;57.66
41947;BME280;27638;42.184;24.848;2023-05-23T07:18:31;99535.19;;;24.61;56.98
41947;BME280;27638;42.184;24.848;2023-05-23T07:20:56;99545.41;;;24.86;56.16
41947;BME280;27638;42.184;24.848;2023-05-23T07:23:22;99541.81;;;25.07;56.22
41947;BME280;27638;42.184;24.848;2023-05-23T07:25:50;99544.09;;;25.26;52.59
41947;BME280;27638;42.184;24.848;2023-05-23T07:28:16;99541.75;;;25.50;52.59
41947;BME280;27638;42.184;24.848;2023-05-23T07:30:41;99537.97;;;25.51;52.03
41947;BME280;27638;42.184;24.848;2023-05-23T07:33:07;99531.75;;;25.55;52.63
41947;BME280;27638;42.184;24.848;2023-05-23T07:35:32;99532.63;;;25.66;51.10
41947;BME280;27638;42.184;24.848;2023-05-23T07:37:58;99533.94;;;25.63;51.08
41947;BME280;27638;42.184;24.848;2023-05-23T07:40:23;99529.97;;;25.81;48.49
41947;BME280;27638;42.184;24.848;2023-05-23T07:42:49;99525.91;;;25.89;49.32
41947;BME280;27638;42.184;24.848;2023-05-23T07:45:14;99523.00;;;26.16;49.94
41947;BME280;27638;42.184;24.848;2023-05-23T07:47:40;99526.28;;;26.23;49.40
41947;BME280;27638;42.184;24.848;2023-05-23T07:50:07;99520.03;;;26.12;48.84
41947;BME280;27638;42.184;24.848;2023-05-23T07:52:33;99519.78;;;26.29;50.60
41947;BME280;27638;42.184;24.848;2023-05-23T07:54:59;99530.13;;;26.37;46.51
41947;BME280;27638;42.184;24.848;2023-05-23T07:57:24;99518.44;;;26.36;46.72
41947;BME280;27638;42.184;24.848;2023-05-23T07:59:51;99526.31;;;26.43;45.52
41947;BME280;27638;42.184;24.848;2023-05-23T08:02:17;99520.09;;;26.37;45.23
41947;BME280;27638;42.184;24.848;2023-05-23T08:04:42;99520.91;;;26.48;44.25
41947;BME280;27638;42.184;24.848;2023-05-23T08:07:09;99523.88;;;26.62;42.61
41947;BME280;27638;42.184;24.848;2023-05-23T08:09:36;99514.09;;;26.61;42.09
41947;BME280;27638;42.184;24.848;2023-05-23T08:12:02;99502.69;;;26.79;43.72
41947;BME280;27638;42.184;24.848;2023-05-23T08:14:27;99513.53;;;27.04;42.26
41947;BME280;27638;42.184;24.848;2023-05-23T08:16:53;99515.41;;;27.19;41.76
41947;BME280;27638;42.184;24.848;2023-05-23T08:19:18;99515.69;;;27.13;39.45
41947;BME280;27638;42.184;24.848;2023-05-23T08:21:44;99514.88;;;27.17;40.65
41947;BME280;27638;42.184;24.848;2023-05-23T08:24:10;99510.78;;;27.20;38.30
41947;BME280;27638;42.184;24.848;2023-05-23T08:26:37;99508.94;;;27.05;38.00
41947;BME280;27638;42.184;24.848;2023-05-23T08:29:03;99502.13;;;26.77;40.34
41947;BME280;27638;42.184;24.848;2023-05-23T08:31:29;99507.28;;;26.79;41.10
41947;BME280;27638;42.184;24.848;2023-05-23T08:33:54;99508.66;;;26.66;43.05
41947;BME280;27638;42.184;24.848;2023-05-23T08:36:20;99508.13;;;26.69;43.52
41947;BME280;27638;42.184;24.848;2023-05-23T08:38:45;99504.84;;;26.82;40.99
41947;BME280;27638;42.184;24.848;2023-05-23T08:41:21;99496.38;;;27.24;41.34
41947;BME280;27638;42.184;24.848;2023-05-23T08:43:47;99494.97;;;27.37;36.86
41947;BME280;27638;42.184;24.848;2023-05-23T08:46:14;99497.59;;;27.62;38.58
41947;BME280;27638;42.184;24.848;2023-05-23T08:48:41;99496.69;;;27.77;38.41
41947;BME280;27638;42.184;24.848;2023-05-23T08:51:08;99495.84;;;27.82;39.54
41947;BME280;27638;42.184;24.848;2023-05-23T08:53:37;99506.94;;;27.36;38.65
41947;BME280;27638;42.184;24.848;2023-05-23T08:56:05;99498.50;;;27.38;38.56
41947;BME280;27638;42.184;24.848;2023-05-23T08:58:34;99500.72;;;27.20;39.66
41947;BME280;27638;42.184;24.848;2023-05-23T09:00:59;99503.22;;;26.86;40.05
41947;BME280;27638;42.184;24.848;2023-05-23T09:03:26;99499.69;;;26.76;43.95
41947;BME280;27638;42.184;24.848;2023-05-23T09:05:55;99499.69;;;27.06;41.07
41947;BME280;27638;42.184;24.848;2023-05-23T09:08:22;99492.63;;;27.05;39.15
41947;BME280;27638;42.184;24.848;2023-05-23T09:10:49;99492.31;;;26.96;40.64
41947;BME280;27638;42.184;24.848;2023-05-23T09:13:15;99490.16;;;26.93;39.41
41947;BME280;27638;42.184;24.848;2023-05-23T09:18:26;99490.41;;;26.97;41.03
41947;BME280;27638;42.184;24.848;2023-05-23T09:20:52;99483.66;;;26.79;38.47
41947;BME280;27638;42.184;24.848;2023-05-23T09:23:18;99488.03;;;26.60;40.69
41947;BME280;27638;42.184;24.848;2023-05-23T09:25:46;99488.31;;;26.38;40.77
41947;BME280;27638;42.184;24.848;2023-05-23T09:28:12;99493.97;;;26.16;39.58
41947;BME280;27638;42.184;24.848;2023-05-23T09:30:38;99482.84;;;26.02;42.19
41947;BME280;27638;42.184;24.848;2023-05-23T09:33:03;99479.97;;;25.52;44.22
41947;BME280;27638;42.184;24.848;2023-05-23T09:35:29;99486.25;;;25.05;46.90
41947;BME280;27638;42.184;24.848;2023-05-23T09:37:56;99490.28;;;24.97;44.08
41947;BME280;27638;42.184;24.848;2023-05-23T09:40:29;99489.03;;;25.15;43.07
41947;BME280;27638;42.184;24.848;2023-05-23T09:43:04;99493.16;;;24.91;44.16
41947;BME280;27638;42.184;24.848;2023-05-23T09:45:32;99493.16;;;24.91;45.18
41947;BME280;27638;42.184;24.848;2023-05-23T09:47:58;99490.44;;;24.91;44.09
41947;BME280;27638;42.184;24.848;2023-05-23T09:50:30;99491.72;;;24.78;45.93
41947;BME280;27638;42.184;24.848;2023-05-23T09:52:57;99483.88;;;24.76;43.54
41947;BME280;27638;42.184;24.848;2023-05-23T09:55:23;99479.72;;;24.64;45.27
41947;BME280;27638;42.184;24.848;2023-05-23T09:57:52;99477.34;;;24.35;44.46
41947;BME280;27638;42.184;24.848;2023-05-23T10:00:19;99475.75;;;24.39;44.49
41947;BME280;27638;42.184;24.848;2023-05-23T10:03:10;99474.50;;;24.52;43.41
41947;BME280;27638;42.184;24.848;2023-05-23T10:05:56;99476.16;;;24.58;42.34
41947;BME280;27638;42.184;24.848;2023-05-23T10:08:31;99472.13;;;24.61;44.45
41947;BME280;27638;42.184;24.848;2023-05-23T10:14:02;99475.06;;;24.96;40.84
41947;BME280;27638;42.184;24.848;2023-05-23T10:16:51;99471.91;;;25.04;42.21
41947;BME280;27638;42.184;24.848;2023-05-23T10:22:00;99476.13;;;24.95;42.26
41947;BME280;27638;42.184;24.848;2023-05-23T10:24:26;99471.34;;;25.02;43.86
41947;BME280;27638;42.184;24.848;2023-05-23T10:26:52;99484.47;;;24.83;43.16
41947;BME280;27638;42.184;24.848;2023-05-23T10:29:21;99468.63;;;24.65;42.27
41947;BME280;27638;42.184;24.848;2023-05-23T10:31:47;99462.22;;;24.76;43.09
41947;BME280;27638;42.184;24.848;2023-05-23T10:34:19;99459.63;;;24.97;43.38
41947;BME280;27638;42.184;24.848;2023-05-23T10:36:52;99455.22;;;25.28;43.00
41947;BME280;27638;42.184;24.848;2023-05-23T10:40:12;99445.50;;;25.47;43.06
41947;BME280;27638;42.184;24.848;2023-05-23T10:42:53;99444.19;;;25.55;40.98
41947;BME280;27638;42.184;24.848;2023-05-23T10:45:21;99432.53;;;25.59;41.28
41947;BME280;27638;42.184;24.848;2023-05-23T10:47:48;99440.91;;;25.48;43.96
41947;BME280;27638;42.184;24.848;2023-05-23T10:50:35;99445.81;;;25.56;43.27
41947;BME280;27638;42.184;24.848;2023-05-23T10:53:04;99446.59;;;25.51;40.69
41947;BME280;27638;42.184;24.848;2023-05-23T10:55:34;99441.72;;;25.43;40.05
41947;BME280;27638;42.184;24.848;2023-05-23T10:58:17;99441.13;;;25.31;40.73
41947;BME280;27638;42.184;24.848;2023-05-23T11:00:51;99440.28;;;25.20;40.95
41947;BME280;27638;42.184;24.848;2023-05-23T11:03:18;99452.69;;;25.11;41.43
41947;BME280;27638;42.184;24.848;2023-05-23T11:05:51;99454.63;;;25.16;43.73
41947;BME280;27638;42.184;24.848;2023-05-23T11:08:19;99449.78;;;25.28;42.72
41947;BME280;27638;42.184;24.848;2023-05-23T11:10:58;99445.16;;;25.23;40.88
41947;BME280;27638;42.184;24.848;2023-05-23T11:13:24;99457.38;;;25.26;43.64
41947;BME280;27638;42.184;24.848;2023-05-23T11:15:50;99457.06;;;25.17;42.40
41947;BME280;27638;42.184;24.848;2023-05-23T11:18:27;99438.13;;;25.22;42.75
41947;BME280;27638;42.184;24.848;2023-05-23T11:20:57;99452.75;;;25.26;41.47
41947;BME280;27638;42.184;24.848;2023-05-23T11:23:39;99449.78;;;25.28;41.16
41947;BME280;27638;42.184;24.848;2023-05-23T11:26:29;99449.25;;;25.31;41.32
41947;BME280;27638;42.184;24.848;2023-05-23T11:28:55;99452.53;;;25.38;42.10
41947;BME280;27638;42.184;24.848;2023-05-23T11:31:22;99448.75;;;25.44;42.78
41947;BME280;27638;42.184;24.848;2023-05-23T11:33:50;99452.84;;;25.46;40.70
41947;BME280;27638;42.184;24.848;2023-05-23T11:36:15;99456.06;;;25.43;42.01
41947;BME280;27638;42.184;24.848;2023-05-23T11:38:41;99452.81;;;25.41;43.91
41947;BME280;27638;42.184;24.848;2023-05-23T11:41:06;99458.22;;;25.36;45.13
41947;BME280;27638;42.184;24.848;2023-05-23T11:43:32;99459.50;;;25.19;46.34
41947;BME280;27638;42.184;24.848;2023-05-23T11:46:06;99468.91;;;25.01;48.94
41947;BME280;27638;42.184;24.848;2023-05-23T11:48:32;99469.19;;;24.30;54.95
41947;BME280;27638;42.184;24.848;2023-05-23T11:50:57;99469.16;;;23.98;58.58
41947;BME280;27638;42.184;24.848;2023-05-23T11:53:26;99460.09;;;23.61;58.39
41947;BME280;27638;42.184;24.848;2023-05-23T11:55:55;99468.50;;;23.64;57.99
41947;BME280;27638;42.184;24.848;2023-05-23T11:58:27;99472.06;;;23.48;62.04
41947;BME280;27638;42.184;24.848;2023-05-23T12:03:29;99460.91;;;23.39;61.60
41947;BME280;27638;42.184;24.848;2023-05-23T12:05:56;99470.25;;;23.53;63.73
41947;BME280;27638;42.184;24.848;2023-05-23T12:08:22;99457.63;;;23.59;61.37
41947;BME280;27638;42.184;24.848;2023-05-23T12:10:59;99460.09;;;23.61;60.65
41947;BME280;27638;42.184;24.848;2023-05-23T12:13:26;99461.97;;;23.60;60.31
41947;BME280;27638;42.184;24.848;2023-05-23T12:15:56;99457.00;;;23.52;61.32
41947;BME280;27638;42.184;24.848;2023-05-23T12:18:23;99458.31;;;23.71;63.99
41947;BME280;27638;42.184;24.848;2023-05-23T12:20:49;99450.56;;;23.80;60.49
41947;BME280;27638;42.184;24.848;2023-05-23T12:23:21;99453.44;;;23.95;59.91
41947;BME280;27638;42.184;24.848;2023-05-23T12:25:51;99444.09;;;24.08;59.07
41947;BME280;27638;42.184;24.848;2023-05-23T12:28:16;99446.88;;;23.91;61.40
41947;BME280;27638;42.184;24.848;2023-05-23T12:30:43;99444.38;;;23.84;60.39
41947;BME280;27638;42.184;24.848;2023-05-23T12:33:09;99443.06;;;23.87;60.33
41947;BME280;27638;42.184;24.848;2023-05-23T12:35:34;99446.38;;;23.67;62.70
41947;BME280;27638;42.184;24.848;2023-05-23T12:38:00;99438.09;;;23.79;58.85
41947;BME280;27638;42.184;24.848;2023-05-23T12:40:26;99438.63;;;23.76;60.02
41947;BME280;27638;42.184;24.848;2023-05-23T12:42:53;99437.66;;;23.60;60.08
41947;BME280;27638;42.184;24.848;2023-05-23T12:45:40;99438.09;;;23.30;60.94
41947;BME280;27638;42.184;24.848;2023-05-23T12:48:05;99427.88;;;23.10;61.24
41947;BME280;27638;42.184;24.848;2023-05-23T12:50:34;99421.22;;;23.18;59.58
41947;BME280;27638;42.184;24.848;2023-05-23T12:53:00;99414.53;;;23.25;59.77
41947;BME280;27638;42.184;24.848;2023-05-23T12:55:25;99411.22;;;23.18;58.11
41947;BME280;27638;42.184;24.848;2023-05-23T12:57:51;99412.34;;;23.22;59.37
41947;BME280;27638;42.184;24.848;2023-05-23T13:00:17;99416.19;;;23.27;56.43
41947;BME280;27638;42.184;24.848;2023-05-23T13:02:43;99415.03;;;23.22;56.99
41947;BME280;27638;42.184;24.848;2023-05-23T13:05:09;99410.09;;;23.14;58.24